Time;durP1;ratioP1;P1;durP2;ratioP2;P2;SDS_P1;SDS_P2;PMS_P1;PMS_P2;Temp;Humidity;BMP_temperature;BMP_pressure;BME280_temperature;BME280_humidity;BME280_pressure;Samples;Min_cycle;Max_cycle;Signal;HPM_P1;HPM_P2
2022/01/30 00:00:00;;;;;;;18.53;3.97;;;7.80;99.90;;;;;;4962805;28;20199;-81
2022/01/30 00:02:27;;;;;;;20.03;3.77;;;7.80;99.90;;;;;;4962517;28;20186;-80
2022/01/30 00:04:53;;;;;;;22.60;4.30;;;7.80;99.90;;;;;;4962048;28;20187;-80
2022/01/30 00:07:18;;;;;;;22.00;4.03;;;7.70;99.90;;;;;;4963742;28;20649;-79
2022/01/30 00:09:45;;;;;;;12.70;3.43;;;7.70;99.90;;;;;;4962829;28;20199;-80
2022/01/30 00:12:14;;;;;;;19.63;4.47;;;7.70;99.90;;;;;;4963767;28;20178;-80
2022/01/30 00:14:40;;;;;;;20.83;3.63;;;7.60;99.90;;;;;;4962384;28;20199;-79
2022/01/30 00:17:12;;;;;;;19.03;3.70;;;7.60;99.90;;;;;;4961794;29;20186;-80
2022/01/30 00:19:44;;;;;;;19.47;3.80;;;7.60;99.90;;;;;;4959028;29;20228;-80
2022/01/30 00:24:53;;;;;;;18.80;3.93;;;7.60;99.90;;;;;;4962244;28;20163;-80
2022/01/30 00:27:27;;;;;;;19.20;3.47;;;7.50;99.90;;;;;;4960842;28;20183;-79
2022/01/30 00:29:53;;;;;;;22.57;4.30;;;7.50;99.90;;;;;;4961155;28;20270;-80
2022/01/30 00:32:18;;;;;;;18.03;4.37;;;7.50;99.90;;;;;;4961750;28;20222;-80
2022/01/30 00:34:44;;;;;;;23.27;4.07;;;7.50;99.90;;;;;;4958881;28;20202;-80
2022/01/30 00:37:10;;;;;;;20.57;4.00;;;7.50;99.90;;;;;;4956310;28;20206;-80
2022/01/30 00:39:35;;;;;;;21.37;4.03;;;7.50;99.90;;;;;;4958128;28;20219;-80
2022/01/30 00:42:01;;;;;;;24.60;4.20;;;7.40;99.90;;;;;;4961817;28;20175;-77
2022/01/30 00:44:26;;;;;;;22.93;5.03;;;7.40;99.90;;;;;;4964049;28;20175;-79
2022/01/30 00:46:53;;;;;;;18.03;3.80;;;7.30;99.90;;;;;;4963844;29;20184;-79
2022/01/30 00:49:18;;;;;;;17.17;3.93;;;7.40;99.90;;;;;;4965708;28;20274;-80
2022/01/30 00:51:44;;;;;;;22.50;3.97;;;7.30;99.90;;;;;;4966102;29;20653;-80
2022/01/30 00:54:09;;;;;;;18.07;3.70;;;7.30;99.90;;;;;;4969086;28;20183;-80
2022/01/30 00:56:35;;;;;;;27.20;4.73;;;7.30;99.90;;;;;;4960246;29;20206;-80
2022/01/30 00:59:00;;;;;;;17.87;4.23;;;7.30;99.90;;;;;;4954574;29;20198;-80
2022/01/30 01:01:26;;;;;;;18.60;3.57;;;7.30;99.90;;;;;;4954938;28;20196;-81
2022/01/30 01:03:51;;;;;;;22.53;3.40;;;7.30;99.90;;;;;;4954845;28;20178;-80
2022/01/30 01:06:17;;;;;;;26.10;4.57;;;7.30;99.90;;;;;;4954063;29;20218;-80
2022/01/30 01:08:52;;;;;;;18.37;4.13;;;7.30;99.90;;;;;;4955220;28;20203;-80
2022/01/30 01:24:30;;;;;;;23.83;4.77;;;7.30;99.90;;;;;;4937305;29;20540;-79
2022/01/30 01:26:56;;;;;;;22.63;5.10;;;7.30;99.90;;;;;;4941110;28;20188;-79
2022/01/30 01:29:21;;;;;;;21.20;5.20;;;7.30;99.90;;;;;;4945729;28;20222;-80
2022/01/30 01:31:47;;;;;;;24.50;6.37;;;7.30;99.90;;;;;;4950778;28;20174;-80
2022/01/30 01:34:31;;;;;;;25.10;6.43;;;7.30;99.90;;;;;;4964668;28;20530;-80
2022/01/30 01:36:57;;;;;;;24.00;5.53;;;7.30;99.90;;;;;;4956684;28;20313;-80
2022/01/30 01:39:23;;;;;;;30.83;4.87;;;7.30;99.90;;;;;;4955727;28;20656;-80
2022/01/30 01:41:49;;;;;;;26.07;5.90;;;7.30;99.90;;;;;;4960366;29;20186;-79
2022/01/30 01:44:16;;;;;;;33.30;5.97;;;7.30;99.90;;;;;;4964471;28;20174;-79
2022/01/30 01:46:42;;;;;;;25.23;5.97;;;7.20;99.90;;;;;;4958875;29;20205;-80
2022/01/30 01:49:13;;;;;;;22.20;5.00;;;7.20;99.90;;;;;;4955281;29;20210;-80
2022/01/30 01:51:46;;;;;;;36.77;6.57;;;7.10;99.90;;;;;;4960096;28;20637;-79
2022/01/30 01:54:12;;;;;;;25.40;7.13;;;7.10;99.90;;;;;;4962827;29;20659;-79
2022/01/30 01:56:38;;;;;;;29.50;7.07;;;7.10;99.90;;;;;;4959464;28;20207;-80
2022/01/30 01:59:04;;;;;;;32.03;7.23;;;7.10;99.90;;;;;;4956824;28;20265;-80
2022/01/30 02:01:30;;;;;;;26.90;7.13;;;7.10;99.90;;;;;;4955035;29;20632;-80
2022/01/30 02:03:55;;;;;;;27.70;7.87;;;7.10;99.90;;;;;;4954980;28;20217;-80
2022/01/30 02:06:23;;;;;;;25.07;5.80;;;7.00;99.90;;;;;;4954931;29;20179;-80
2022/01/30 02:08:54;;;;;;;22.60;6.43;;;7.00;99.90;;;;;;4956512;28;20249;-80
2022/01/30 02:11:37;;;;;;;25.43;5.60;;;7.00;99.90;;;;;;4957867;28;20162;-80
2022/01/30 02:25:27;;;;;;;21.97;7.07;;;6.70;99.90;;;;;;4886536;28;20309;-82
2022/01/30 02:27:57;;;;;;;27.90;7.00;;;6.70;99.90;;;;;;4938673;28;20677;-80
2022/01/30 02:30:28;;;;;;;32.97;6.93;;;6.70;99.90;;;;;;4936881;28;20393;-79
2022/01/30 02:32:55;;;;;;;28.63;6.60;;;6.70;99.90;;;;;;4939412;29;20159;-80
2022/01/30 02:35:20;;;;;;;32.90;6.73;;;6.70;99.90;;;;;;4941020;29;20199;-80
2022/01/30 02:37:47;;;;;;;30.40;6.90;;;6.70;99.90;;;;;;4957483;28;20193;-80
2022/01/30 02:40:13;;;;;;;32.13;7.47;;;6.70;99.90;;;;;;4959105;28;20211;-80
2022/01/30 02:42:44;;;;;;;29.40;7.43;;;6.70;99.90;;;;;;4959575;28;20167;-80
2022/01/30 02:45:13;;;;;;;31.13;6.97;;;6.70;99.90;;;;;;4957808;29;20186;-81
2022/01/30 02:47:52;;;;;;;33.37;6.73;;;6.70;99.90;;;;;;4940632;28;20176;-80
2022/01/30 02:50:34;;;;;;;36.20;6.37;;;6.70;99.90;;;;;;4944165;29;20220;-79
2022/01/30 02:53:03;;;;;;;21.77;4.83;;;6.70;99.90;;;;;;4943043;29;20186;-80
2022/01/30 02:55:28;;;;;;;26.80;5.57;;;6.80;99.90;;;;;;4943732;29;20196;-81
2022/01/30 02:57:54;;;;;;;33.13;6.43;;;6.70;99.90;;;;;;4944510;29;20183;-80
2022/01/30 03:00:20;;;;;;;27.70;5.60;;;6.80;99.90;;;;;;4937641;28;20732;-80
2022/01/30 03:02:45;;;;;;;25.23;4.57;;;6.80;99.90;;;;;;4939787;28;20210;-80
2022/01/30 03:05:11;;;;;;;24.77;5.17;;;6.80;99.90;;;;;;4938255;28;20177;-80
2022/01/30 03:07:37;;;;;;;37.40;7.23;;;6.80;99.90;;;;;;4939884;29;20233;-80
2022/01/30 03:10:03;;;;;;;34.33;7.27;;;6.80;99.90;;;;;;4939359;29;20199;-80
2022/01/30 03:12:28;;;;;;;34.90;7.17;;;6.80;99.90;;;;;;4939208;28;20191;-80
2022/01/30 03:14:54;;;;;;;31.37;6.60;;;6.90;99.90;;;;;;4940086;28;20204;-80
2022/01/30 03:17:19;;;;;;;24.10;6.17;;;6.80;99.90;;;;;;4938763;29;20188;-80
2022/01/30 03:19:45;;;;;;;30.93;6.03;;;6.90;99.90;;;;;;4939527;28;20200;-80
2022/01/30 03:22:11;;;;;;;31.90;6.13;;;6.90;99.90;;;;;;4939806;29;20176;-80
2022/01/30 03:24:37;;;;;;;26.23;6.23;;;6.90;99.90;;;;;;4940108;28;20186;-79
2022/01/30 03:27:06;;;;;;;28.00;6.70;;;6.80;99.90;;;;;;4938733;29;20179;-80
2022/01/30 03:29:32;;;;;;;21.77;5.83;;;6.80;99.90;;;;;;4940318;28;20230;-80
2022/01/30 03:31:58;;;;;;;25.67;6.83;;;6.80;99.90;;;;;;4939557;29;20242;-80
2022/01/30 03:34:24;;;;;;;24.93;5.20;;;6.80;99.90;;;;;;4937531;28;20180;-80
2022/01/30 03:36:50;;;;;;;28.37;5.47;;;6.80;99.90;;;;;;4939071;28;20183;-80
2022/01/30 03:39:16;;;;;;;23.33;5.33;;;6.80;99.90;;;;;;4978919;23;20223;-77
2022/01/30 03:41:42;;;;;;;22.80;4.83;;;6.80;99.90;;;;;;5055847;28;20168;-78
2022/01/30 03:44:08;;;;;;;25.07;4.93;;;6.70;99.90;;;;;;5037611;28;20172;-78
2022/01/30 03:46:33;;;;;;;23.07;4.70;;;6.80;99.90;;;;;;5055765;28;20224;-78
2022/01/30 03:48:59;;;;;;;20.50;5.20;;;6.70;99.90;;;;;;5055699;28;20221;-77
2022/01/30 03:51:24;;;;;;;24.50;4.70;;;6.70;99.90;;;;;;5055593;28;20176;-77
2022/01/30 03:53:50;;;;;;;27.53;4.63;;;6.60;99.90;;;;;;5037151;28;20180;-77
2022/01/30 03:56:15;;;;;;;27.57;4.93;;;6.60;99.90;;;;;;5036961;28;20577;-78
2022/01/30 03:58:41;;;;;;;18.67;4.23;;;6.60;99.90;;;;;;5054557;28;20220;-78
2022/01/30 04:01:07;;;;;;;27.63;4.70;;;6.50;99.90;;;;;;5037071;28;20227;-77
2022/01/30 04:03:33;;;;;;;24.00;4.77;;;6.40;99.90;;;;;;5036909;28;20171;-78
2022/01/30 04:05:59;;;;;;;22.87;5.13;;;6.30;99.90;;;;;;5037186;28;20187;-78
2022/01/30 04:08:25;;;;;;;29.60;4.67;;;6.30;99.90;;;;;;5037458;28;20233;-77
2022/01/30 04:10:51;;;;;;;24.80;4.93;;;6.20;99.90;;;;;;5054706;28;20250;-77
2022/01/30 04:13:16;;;;;;;25.83;5.30;;;6.20;99.90;;;;;;5037109;28;20187;-78
2022/01/30 04:15:42;;;;;;;30.83;5.20;;;6.10;99.90;;;;;;5036591;28;20207;-77
2022/01/30 04:18:08;;;;;;;25.27;5.97;;;6.10;99.90;;;;;;5036654;28;20551;-77
2022/01/30 04:20:34;;;;;;;27.83;5.37;;;6.10;99.90;;;;;;5054347;28;20188;-77
2022/01/30 04:22:59;;;;;;;26.23;4.97;;;6.10;99.90;;;;;;5037625;28;20178;-79
2022/01/30 04:25:25;;;;;;;18.57;5.00;;;6.10;99.90;;;;;;5054876;28;20186;-77
2022/01/30 04:27:51;;;;;;;29.37;5.43;;;6.10;99.90;;;;;;5054292;28;20676;-78
2022/01/30 04:30:17;;;;;;;28.77;5.57;;;6.10;99.90;;;;;;5054560;28;20203;-78
2022/01/30 04:32:44;;;;;;;20.07;5.13;;;6.00;99.90;;;;;;5055120;28;20191;-78
2022/01/30 04:35:15;;;;;;;27.50;5.77;;;6.00;99.90;;;;;;5036559;28;20269;-77
2022/01/30 04:54:09;;;;;;;22.30;5.40;;;6.00;99.90;;;;;;5057722;28;20186;-77
2022/01/30 04:56:53;;;;;;;24.73;5.40;;;6.00;99.90;;;;;;5068707;28;20573;-78
2022/01/30 04:59:39;;;;;;;26.87;5.97;;;6.00;99.90;;;;;;5056353;28;20174;-78
2022/01/30 05:02:08;;;;;;;20.30;4.13;;;5.90;99.90;;;;;;5054516;28;20183;-78
2022/01/30 05:04:52;;;;;;;20.57;4.30;;;5.90;99.90;;;;;;5036866;28;20539;-78
2022/01/30 05:09:44;;;;;;;22.10;4.30;;;5.90;99.90;;;;;;5053830;28;20195;-78
2022/01/30 05:12:11;;;;;;;18.67;4.57;;;6.00;99.90;;;;;;5054058;28;20191;-78
2022/01/30 05:14:37;;;;;;;20.30;4.07;;;6.00;99.90;;;;;;5054152;28;20250;-78
2022/01/30 05:17:05;;;;;;;21.33;4.17;;;6.00;99.90;;;;;;5054154;28;20213;-78
2022/01/30 05:19:31;;;;;;;16.97;4.37;;;6.00;99.90;;;;;;5053738;28;20696;-77
2022/01/30 05:21:57;;;;;;;19.30;3.87;;;6.00;99.90;;;;;;5035923;28;20178;-78
2022/01/30 05:24:23;;;;;;;22.87;4.77;;;6.10;99.90;;;;;;5054112;28;20168;-78
2022/01/30 05:26:50;;;;;;;25.90;5.20;;;6.10;99.90;;;;;;5035878;28;20179;-77
2022/01/30 05:29:16;;;;;;;26.93;5.87;;;6.00;99.90;;;;;;5053419;28;20191;-78
2022/01/30 05:31:42;;;;;;;25.03;7.33;;;6.10;99.90;;;;;;5053327;28;20171;-78
2022/01/30 05:34:08;;;;;;;22.20;6.17;;;6.10;99.90;;;;;;5035828;28;20274;-77
2022/01/30 05:36:37;;;;;;;35.70;6.63;;;6.00;99.90;;;;;;5035515;28;20261;-77
2022/01/30 05:39:04;;;;;;;23.73;6.13;;;6.00;99.90;;;;;;5035427;28;20179;-78
2022/01/30 05:41:30;;;;;;;28.73;6.77;;;5.90;99.90;;;;;;5035845;28;20214;-78
2022/01/30 05:43:58;;;;;;;25.13;6.57;;;5.90;99.90;;;;;;5035321;28;20203;-78
2022/01/30 05:46:35;;;;;;;27.17;6.47;;;5.80;99.90;;;;;;5053381;28;20189;-78
2022/01/30 05:49:04;;;;;;;26.13;5.60;;;5.80;99.90;;;;;;5053494;28;20225;-77
2022/01/30 05:51:30;;;;;;;21.07;5.43;;;5.80;99.90;;;;;;5053419;28;20175;-78
2022/01/30 05:53:56;;;;;;;20.53;5.00;;;5.70;99.90;;;;;;5035631;28;20191;-78
2022/01/30 05:56:22;;;;;;;20.70;5.43;;;5.70;99.90;;;;;;5053249;28;20211;-77
2022/01/30 05:58:47;;;;;;;28.47;6.57;;;5.60;99.90;;;;;;5053325;28;20225;-78
2022/01/30 06:01:13;;;;;;;28.93;6.50;;;5.70;99.90;;;;;;5034990;28;20294;-78
2022/01/30 06:03:39;;;;;;;25.43;6.37;;;5.80;99.90;;;;;;5053102;28;20179;-77
2022/01/30 06:06:07;;;;;;;28.03;6.10;;;5.80;99.90;;;;;;5035238;28;20180;-77
2022/01/30 06:08:43;;;;;;;16.63;5.33;;;5.80;99.90;;;;;;5035347;28;20266;-78
2022/01/30 06:11:10;;;;;;;20.93;4.87;;;5.80;99.90;;;;;;5035050;28;20199;-78
2022/01/30 06:13:35;;;;;;;21.07;4.43;;;5.80;99.90;;;;;;5053462;28;20262;-78
2022/01/30 06:16:01;;;;;;;20.87;4.67;;;5.80;99.90;;;;;;5053344;28;20347;-78
2022/01/30 06:18:27;;;;;;;17.10;4.03;;;5.80;99.90;;;;;;5035351;28;20229;-78
2022/01/30 06:20:53;;;;;;;22.93;4.47;;;5.80;99.90;;;;;;5053203;28;20607;-77
2022/01/30 06:23:22;;;;;;;22.77;5.13;;;5.80;99.90;;;;;;5039006;28;20565;-77
2022/01/30 06:25:48;;;;;;;13.43;3.57;;;5.80;99.90;;;;;;5057237;28;20587;-78
2022/01/30 06:28:14;;;;;;;14.40;3.43;;;5.80;99.90;;;;;;5057626;28;20190;-78
2022/01/30 06:30:40;;;;;;;20.57;3.27;;;5.80;99.90;;;;;;5057419;28;20573;-78
2022/01/30 06:33:06;;;;;;;24.10;3.80;;;5.80;99.90;;;;;;5057524;28;20179;-78
2022/01/30 06:35:31;;;;;;;17.47;3.17;;;5.80;99.90;;;;;;5039417;28;20278;-78
2022/01/30 06:37:57;;;;;;;15.30;2.83;;;5.80;99.90;;;;;;5039644;28;20725;-78
2022/01/30 06:40:22;;;;;;;18.27;2.87;;;5.80;99.90;;;;;;5057174;28;20211;-78
2022/01/30 06:42:48;;;;;;;15.00;3.33;;;5.70;99.90;;;;;;5039258;28;20654;-78
2022/01/30 06:45:13;;;;;;;19.97;3.13;;;5.80;99.90;;;;;;5057622;28;20545;-78
2022/01/30 06:47:43;;;;;;;17.83;3.00;;;5.80;99.90;;;;;;5058605;28;20172;-78
2022/01/30 06:50:09;;;;;;;18.20;3.60;;;5.80;99.90;;;;;;5058157;28;20199;-79
2022/01/30 06:52:36;;;;;;;19.47;3.30;;;5.80;99.90;;;;;;5058006;28;20256;-78
2022/01/30 06:55:01;;;;;;;13.70;3.03;;;5.90;99.90;;;;;;5060374;28;20195;-78
2022/01/30 06:57:27;;;;;;;16.57;3.83;;;5.80;99.90;;;;;;5062823;28;20186;-78
2022/01/30 06:59:52;;;;;;;20.30;5.83;;;5.80;99.90;;;;;;5073029;28;20202;-78
2022/01/30 07:02:18;;;;;;;23.27;5.17;;;5.90;99.90;;;;;;5068487;28;20670;-77
2022/01/30 07:04:43;;;;;;;14.23;4.20;;;5.90;99.90;;;;;;5049345;28;20174;-77
2022/01/30 07:07:09;;;;;;;22.90;3.90;;;5.90;99.90;;;;;;5039023;28;20171;-76
2022/01/30 07:09:34;;;;;;;19.90;4.57;;;5.90;99.90;;;;;;5037433;28;20866;-77
2022/01/30 07:12:00;;;;;;;18.77;4.57;;;5.80;99.90;;;;;;5037763;28;20171;-77
2022/01/30 07:14:26;;;;;;;23.00;4.43;;;5.90;99.90;;;;;;5039445;28;20179;-77
2022/01/30 07:16:52;;;;;;;21.07;4.00;;;5.90;99.90;;;;;;5037993;28;20203;-77
2022/01/30 07:19:18;;;;;;;16.33;4.07;;;5.90;99.90;;;;;;5056032;28;20202;-77
2022/01/30 07:21:43;;;;;;;15.37;3.30;;;5.90;99.90;;;;;;5055519;28;20577;-77
2022/01/30 07:24:09;;;;;;;13.63;4.20;;;5.90;99.90;;;;;;5055816;28;20168;-77
2022/01/30 07:26:35;;;;;;;17.67;4.70;;;5.90;99.90;;;;;;5055353;28;20175;-77
2022/01/30 07:29:01;;;;;;;13.40;4.20;;;5.90;99.90;;;;;;5055218;28;20179;-77
2022/01/30 07:31:26;;;;;;;13.03;3.63;;;5.90;99.90;;;;;;5055159;28;20176;-77
2022/01/30 07:33:52;;;;;;;15.67;3.80;;;5.90;99.90;;;;;;5055320;28;20226;-77
2022/01/30 07:36:17;;;;;;;15.17;4.03;;;6.00;99.90;;;;;;5059408;28;20200;-78
2022/01/30 07:38:43;;;;;;;17.33;3.90;;;6.00;99.90;;;;;;5038421;28;20174;-77
2022/01/30 07:41:09;;;;;;;20.43;4.80;;;6.00;99.90;;;;;;5055631;28;20546;-77
2022/01/30 07:43:35;;;;;;;14.30;4.20;;;6.00;99.90;;;;;;5038049;28;20175;-77
2022/01/30 07:46:03;;;;;;;26.77;6.03;;;6.00;99.90;;;;;;5037868;28;20172;-77
2022/01/30 07:48:29;;;;;;;26.93;5.47;;;6.00;99.90;;;;;;5055585;28;20175;-77
2022/01/30 07:50:55;;;;;;;20.67;4.50;;;6.00;99.90;;;;;;5055500;28;20561;-77
2022/01/30 07:53:20;;;;;;;13.30;3.67;;;6.00;99.90;;;;;;5037444;28;20262;-77
2022/01/30 07:55:46;;;;;;;13.40;2.90;;;6.00;99.90;;;;;;5055713;28;20234;-78
2022/01/30 07:58:12;;;;;;;15.20;3.20;;;6.00;99.90;;;;;;5055720;28;20167;-77
2022/01/30 08:00:39;;;;;;;18.20;3.33;;;5.90;99.90;;;;;;5054951;28;20241;-77
2022/01/30 08:03:05;;;;;;;11.93;2.77;;;5.90;99.90;;;;;;5036986;28;20198;-77
2022/01/30 08:05:31;;;;;;;16.40;3.13;;;5.90;99.90;;;;;;5054864;28;20221;-76
2022/01/30 08:07:56;;;;;;;13.23;2.83;;;5.90;99.90;;;;;;5054977;28;20180;-77
2022/01/30 08:10:22;;;;;;;20.67;3.50;;;5.80;99.90;;;;;;5055493;28;20739;-77
2022/01/30 08:12:48;;;;;;;14.20;2.97;;;5.80;99.90;;;;;;5037255;28;20171;-77
2022/01/30 08:15:13;;;;;;;16.57;3.00;;;5.70;99.90;;;;;;5054721;28;20241;-77
2022/01/30 08:17:39;;;;;;;16.47;3.50;;;5.70;99.90;;;;;;5036916;28;20171;-77
2022/01/30 08:20:08;;;;;;;20.30;3.50;;;5.70;99.90;;;;;;5057214;28;20240;-78
2022/01/30 08:22:48;;;;;;;11.93;2.53;;;5.70;99.90;;;;;;5057583;28;20212;-77
2022/01/30 08:25:15;;;;;;;16.70;2.80;;;5.80;99.90;;;;;;5057977;28;20164;-79
2022/01/30 08:27:41;;;;;;;19.10;3.80;;;5.80;99.90;;;;;;5057257;28;20302;-78
2022/01/30 08:30:07;;;;;;;13.60;3.23;;;5.80;99.90;;;;;;5056275;28;20229;-78
2022/01/30 08:32:44;;;;;;;17.80;3.17;;;5.80;99.90;;;;;;5056742;28;20180;-78
2022/01/30 08:35:11;;;;;;;19.67;3.63;;;5.80;99.90;;;;;;5056412;28;20179;-78
2022/01/30 08:37:38;;;;;;;18.67;3.17;;;5.80;99.90;;;;;;5056495;28;20254;-78
2022/01/30 08:40:09;;;;;;;21.87;3.53;;;5.90;99.90;;;;;;5056147;28;20552;-78
2022/01/30 08:42:35;;;;;;;24.20;3.20;;;5.90;99.90;;;;;;5056025;28;20191;-78
2022/01/30 08:45:02;;;;;;;26.50;3.70;;;5.90;99.90;;;;;;5037397;28;20641;-78
2022/01/30 08:47:28;;;;;;;15.97;3.07;;;5.90;99.90;;;;;;5056361;28;20179;-78
2022/01/30 08:49:53;;;;;;;14.50;2.87;;;6.00;99.90;;;;;;5056222;28;20202;-79
2022/01/30 08:52:19;;;;;;;18.77;3.90;;;6.00;99.90;;;;;;5037997;28;20182;-78
2022/01/30 08:54:52;;;;;;;25.87;3.80;;;6.00;99.90;;;;;;5037089;28;20176;-78
2022/01/30 08:57:18;;;;;;;21.40;4.17;;;6.00;99.90;;;;;;5054993;28;20592;-78
2022/01/30 08:59:44;;;;;;;18.93;3.73;;;6.00;99.90;;;;;;5054913;28;20716;-78
2022/01/30 09:02:10;;;;;;;17.03;3.67;;;6.10;99.90;;;;;;5037193;28;20210;-78
2022/01/30 09:04:35;;;;;;;16.10;2.93;;;6.10;99.90;;;;;;5037136;28;20183;-78
2022/01/30 09:07:01;;;;;;;18.03;4.00;;;6.20;99.90;;;;;;5037878;28;20186;-79
2022/01/30 09:09:27;;;;;;;21.67;3.90;;;6.10;99.90;;;;;;5056060;28;20192;-78
2022/01/30 09:11:52;;;;;;;17.23;3.47;;;6.20;99.90;;;;;;5055430;28;20175;-78
2022/01/30 09:14:18;;;;;;;26.77;4.77;;;6.20;99.90;;;;;;5036880;28;20172;-78
2022/01/30 09:16:45;;;;;;;16.03;3.80;;;6.20;99.90;;;;;;5055263;28;20196;-77
2022/01/30 09:19:11;;;;;;;18.70;4.20;;;6.30;99.90;;;;;;5037055;28;20176;-79
2022/01/30 09:21:36;;;;;;;16.40;3.43;;;6.30;99.90;;;;;;5055640;28;20172;-78
2022/01/30 09:24:02;;;;;;;18.00;3.90;;;6.30;99.90;;;;;;5036686;28;20226;-78
2022/01/30 09:26:28;;;;;;;23.13;4.50;;;6.30;99.90;;;;;;5055009;28;20225;-78
2022/01/30 09:28:53;;;;;;;12.63;3.13;;;6.30;99.90;;;;;;5038143;28;20232;-78
2022/01/30 09:31:19;;;;;;;22.40;4.30;;;6.40;99.90;;;;;;5055071;28;20272;-78
2022/01/30 09:33:44;;;;;;;20.43;3.60;;;6.40;99.90;;;;;;5054925;28;20644;-77
2022/01/30 09:36:10;;;;;;;17.33;3.47;;;6.40;99.90;;;;;;5036928;28;20192;-78
2022/01/30 09:38:36;;;;;;;22.23;3.70;;;6.40;99.90;;;;;;5055130;28;20168;-77
2022/01/30 09:41:04;;;;;;;17.27;3.53;;;6.50;99.90;;;;;;5051893;22;20760;-79
2022/01/30 09:43:31;;;;;;;22.50;4.27;;;6.50;99.90;;;;;;4972075;28;20179;-78
2022/01/30 09:45:58;;;;;;;23.07;4.60;;;6.50;99.90;;;;;;4972026;28;20204;-78
2022/01/30 09:48:24;;;;;;;19.87;3.77;;;6.60;99.90;;;;;;4972728;28;20174;-78
2022/01/30 09:50:51;;;;;;;22.97;4.10;;;6.60;99.90;;;;;;4972147;28;20271;-78
2022/01/30 09:53:17;;;;;;;22.17;3.47;;;6.50;99.90;;;;;;4971128;28;20178;-79
2022/01/30 09:55:43;;;;;;;17.07;3.57;;;6.60;99.90;;;;;;4972009;28;20206;-78
2022/01/30 09:58:08;;;;;;;16.30;3.40;;;6.50;99.90;;;;;;4974357;28;20690;-79
2022/01/30 10:00:35;;;;;;;22.07;4.23;;;6.50;99.90;;;;;;4975982;28;20279;-78
2022/01/30 10:03:00;;;;;;;16.43;3.90;;;6.60;99.90;;;;;;4975740;28;20224;-78
2022/01/30 10:05:31;;;;;;;25.30;4.37;;;6.60;99.90;;;;;;4975498;28;20672;-79
2022/01/30 10:07:57;;;;;;;23.73;4.10;;;6.70;99.90;;;;;;4976010;28;20174;-79
2022/01/30 10:10:25;;;;;;;15.53;3.23;;;6.70;99.90;;;;;;4977504;28;20178;-77
2022/01/30 10:13:04;;;;;;;17.93;3.93;;;6.80;99.90;;;;;;4978828;28;20177;-80
2022/01/30 10:15:46;;;;;;;21.53;3.97;;;6.80;99.90;;;;;;4978812;28;20198;-80
2022/01/30 10:18:12;;;;;;;28.63;4.20;;;6.80;99.90;;;;;;4979647;28;20263;-80
2022/01/30 10:20:38;;;;;;;19.37;3.80;;;6.80;99.90;;;;;;4978396;28;20189;-79
2022/01/30 10:23:08;;;;;;;18.73;4.23;;;6.70;99.90;;;;;;4978595;28;20182;-80
2022/01/30 10:25:37;;;;;;;15.07;2.90;;;6.70;99.90;;;;;;4980913;28;20174;-79
2022/01/30 10:28:15;;;;;;;17.27;3.87;;;6.70;99.90;;;;;;4979712;28;20186;-80
2022/01/30 10:30:52;;;;;;;33.80;4.83;;;6.80;99.90;;;;;;4979217;28;20194;-80
2022/01/30 10:33:22;;;;;;;25.03;4.10;;;6.80;99.90;;;;;;4979263;28;20170;-80
2022/01/30 10:35:58;;;;;;;20.30;3.87;;;6.90;99.90;;;;;;4979750;28;20190;-80
2022/01/30 10:38:35;;;;;;;21.23;3.80;;;6.90;99.90;;;;;;4978658;28;20174;-80
2022/01/30 10:41:16;;;;;;;19.30;4.40;;;6.90;99.90;;;;;;4977468;28;20683;-80
2022/01/30 10:43:53;;;;;;;17.53;3.87;;;6.90;99.90;;;;;;4976333;28;20155;-80
2022/01/30 10:46:19;;;;;;;22.80;3.93;;;7.00;99.90;;;;;;4975423;28;20217;-80
2022/01/30 10:48:58;;;;;;;25.93;4.80;;;7.00;99.90;;;;;;4976488;28;20174;-80
2022/01/30 10:51:25;;;;;;;29.83;5.40;;;7.00;99.90;;;;;;4976610;28;20213;-80
2022/01/30 10:53:51;;;;;;;29.03;4.27;;;7.00;99.90;;;;;;4975166;28;20209;-80
2022/01/30 10:56:24;;;;;;;21.27;4.73;;;7.10;99.90;;;;;;4974602;28;20552;-80
2022/01/30 10:59:06;;;;;;;23.13;4.03;;;7.20;99.90;;;;;;4976096;28;20158;-80
2022/01/30 11:01:32;;;;;;;24.30;4.30;;;7.20;99.90;;;;;;4974774;28;20217;-81
2022/01/30 11:04:00;;;;;;;22.90;4.43;;;7.30;99.90;;;;;;4975654;28;20648;-80
2022/01/30 11:06:28;;;;;;;23.80;4.60;;;7.30;99.90;;;;;;4976172;28;20195;-79
2022/01/30 11:08:54;;;;;;;28.30;5.03;;;7.30;99.90;;;;;;4975988;28;20186;-80
2022/01/30 11:11:32;;;;;;;25.87;4.53;;;7.30;99.90;;;;;;4976534;28;20563;-78
2022/01/30 11:19:12;;;;;;;27.00;4.70;;;7.40;99.90;;;;;;4976917;28;20538;-81
2022/01/30 11:21:39;;;;;;;29.53;4.87;;;7.50;99.90;;;;;;4974302;28;20194;-81
2022/01/30 11:24:07;;;;;;;28.73;4.63;;;7.50;99.90;;;;;;4974784;28;20229;-81
2022/01/30 11:26:33;;;;;;;34.00;6.80;;;7.60;99.90;;;;;;4975282;28;20221;-80
2022/01/30 11:29:00;;;;;;;27.60;5.73;;;7.60;99.90;;;;;;4976240;28;20202;-81
2022/01/30 11:31:25;;;;;;;23.10;5.13;;;7.60;99.90;;;;;;4974906;28;20205;-81
2022/01/30 11:33:55;;;;;;;30.93;5.67;;;7.70;99.90;;;;;;4975049;28;20570;-81
2022/01/30 11:36:24;;;;;;;25.80;5.23;;;8.50;99.90;;;;;;4976870;28;20613;-81
2022/01/30 11:38:50;;;;;;;25.03;4.37;;;7.70;99.90;;;;;;4975874;28;20182;-80
2022/01/30 11:41:17;;;;;;;26.03;4.83;;;7.70;99.90;;;;;;4976490;28;20210;-79
2022/01/30 11:44:17;;;;;;;30.03;4.87;;;7.70;99.90;;;;;;4978433;28;20548;-79
2022/01/30 11:46:52;;;;;;;26.93;5.13;;;7.70;99.90;;;;;;4978780;28;20652;-79
2022/01/30 11:49:18;;;;;;;17.43;4.37;;;7.70;99.90;;;;;;4974201;28;20165;-78
2022/01/30 11:51:54;;;;;;;32.30;5.63;;;7.70;99.90;;;;;;4972116;28;20198;-77
2022/01/30 11:54:36;;;;;;;21.07;4.67;;;7.70;99.90;;;;;;5007897;28;20276;-77
2022/01/30 11:57:22;;;;;;;37.67;5.10;;;7.80;99.90;;;;;;4971829;28;20209;-78
2022/01/30 11:59:49;;;;;;;25.10;4.83;;;7.80;99.90;;;;;;4982968;28;20221;-77
2022/01/30 12:02:30;;;;;;;29.57;5.17;;;7.80;99.90;;;;;;4972724;28;20232;-77
2022/01/30 12:04:57;;;;;;;27.20;6.07;;;7.90;99.90;;;;;;4971845;28;20205;-77
2022/01/30 12:07:38;;;;;;;28.30;6.10;;;8.00;99.90;;;;;;4973486;28;20296;-77
2022/01/30 12:10:16;;;;;;;23.10;4.67;;;8.00;99.90;;;;;;4972661;28;20214;-77
2022/01/30 12:13:03;;;;;;;29.27;5.33;;;8.00;99.90;;;;;;4973096;28;20197;-78
2022/01/30 12:15:44;;;;;;;27.23;4.80;;;8.00;99.90;;;;;;4984514;28;20217;-78
2022/01/30 12:18:17;;;;;;;20.67;5.50;;;8.00;99.90;;;;;;4973744;28;20175;-83
2022/01/30 12:21:08;;;;;;;28.20;5.23;;;8.00;99.90;;;;;;4981699;28;20217;-79
2022/01/30 12:23:39;;;;;;;19.90;4.10;;;8.10;99.90;;;;;;4973349;28;20541;-79
2022/01/30 12:26:07;;;;;;;17.97;4.50;;;8.10;99.90;;;;;;4960126;28;20179;-80
2022/01/30 12:29:01;;;;;;;27.27;5.87;;;8.10;99.90;;;;;;4976422;28;20210;-81
2022/01/30 12:31:35;;;;;;;24.57;5.20;;;8.10;99.90;;;;;;4987325;28;20210;-80
2022/01/30 12:34:08;;;;;;;26.63;5.17;;;8.10;99.90;;;;;;4976664;28;20174;-81
2022/01/30 12:36:52;;;;;;;25.33;4.40;;;8.10;99.90;;;;;;4975133;28;20683;-80
2022/01/30 12:39:22;;;;;;;34.37;5.27;;;8.10;99.90;;;;;;4976382;28;20166;-80
2022/01/30 12:45:32;;;;;;;28.37;4.90;;;8.00;99.90;;;;;;4975542;28;20161;-80
2022/01/30 12:47:58;;;;;;;23.10;4.77;;;8.00;99.90;;;;;;4974120;28;20232;-81
2022/01/30 12:53:46;;;;;;;29.50;4.70;;;7.90;99.90;;;;;;4970472;28;20192;-80
2022/01/30 12:59:33;;;;;;;32.40;5.13;;;7.90;99.90;;;;;;4972256;28;20203;-84
2022/01/30 13:02:07;;;;;;;21.60;4.20;;;7.90;99.90;;;;;;4975168;28;20202;-80
2022/01/30 13:04:33;;;;;;;22.60;4.37;;;7.90;99.90;;;;;;4974225;28;20174;-79
2022/01/30 13:06:59;;;;;;;22.27;4.40;;;7.90;99.90;;;;;;4975941;28;20484;-81
2022/01/30 13:09:31;;;;;;;21.90;5.07;;;8.00;99.90;;;;;;5065232;28;20558;-80
2022/01/30 13:12:10;;;;;;;30.80;5.70;;;8.00;99.90;;;;;;5024197;28;20205;-78
2022/01/30 13:14:38;;;;;;;23.83;4.27;;;8.00;99.90;;;;;;4971625;28;20174;-78
2022/01/30 13:17:05;;;;;;;24.43;4.63;;;7.90;99.90;;;;;;4972715;28;20703;-78
2022/01/30 13:19:35;;;;;;;18.03;4.00;;;7.80;99.90;;;;;;4973534;28;20174;-78
2022/01/30 13:22:04;;;;;;;24.87;4.87;;;7.80;99.90;;;;;;4980533;28;20665;-78
2022/01/30 13:24:30;;;;;;;21.93;4.73;;;7.80;99.90;;;;;;4984092;28;20170;-79
2022/01/30 13:27:07;;;;;;;27.60;5.63;;;7.70;99.90;;;;;;4980822;28;20644;-78
2022/01/30 13:29:35;;;;;;;34.07;5.13;;;7.70;99.90;;;;;;4971191;28;20223;-77
2022/01/30 13:32:11;;;;;;;23.37;5.40;;;7.70;99.90;;;;;;4971260;28;20207;-79
2022/01/30 13:34:39;;;;;;;24.47;3.80;;;7.70;99.90;;;;;;4970482;28;20647;-78
2022/01/30 13:37:08;;;;;;;27.20;4.80;;;7.70;99.90;;;;;;4971040;28;20206;-77
2022/01/30 13:47:59;;;;;;;22.80;4.10;;;7.80;99.90;;;;;;4969554;28;20174;-77
2022/01/30 13:50:28;;;;;;;26.23;5.43;;;7.80;99.90;;;;;;4969839;28;20178;-80
2022/01/30 13:53:10;;;;;;;24.27;5.03;;;7.80;99.90;;;;;;4973204;28;20537;-77
2022/01/30 13:55:49;;;;;;;26.80;5.30;;;7.70;99.90;;;;;;4971460;28;20212;-77
2022/01/30 13:58:15;;;;;;;17.63;4.13;;;7.70;99.90;;;;;;4973290;28;20185;-78
2022/01/30 14:00:41;;;;;;;27.03;5.10;;;7.70;99.90;;;;;;4972446;28;20198;-77
2022/01/30 14:03:09;;;;;;;21.33;4.67;;;7.70;99.90;;;;;;4971249;28;20202;-79